Pagrindinis puslapis
METAR-TAF:

METAR-TAF

Oro uostai :

Ängelholm–Helsingborg

Helsingborgas, Švedija

platuma: 56-17-46N, ilguma: 012-50-50E, Aukštis: 21 m

Dabartinis oras

Ataskaita buvo paskelbta 26 minutes, ne 20:50 UTC
Vėjas 9 kt iš Rytų
Temperatūra 14°C
Drėgmė 88%
Slėgis 1009 hPa
Matomumas 10 km arba daugiau

METAR: ESTA 162050Z AUTO 10009KT 9999 FEW076/// 14/12 Q1009

Laikas: 23:16 (21:16 UTC)

Prognozė

Ataskaita buvo paskelbta 4 valandos ir 0 minutes, ne 17:16 UTC
Prognozė galioja nuo 16 metu 18 UTC su 16 metu 22 UTC
Vėjas 12 kt iš Pietų/Pietryčių
Matomumas 10 km arba daugiau
nėra debesų žemiau 1500 m ir nėra kamuolinių lietaus debesų
Laikinai
nuo 16 metu 18 UTC su 16 metu 22 UTC
Išsisklaidę debesys ne aukštis 4000 ft, Liūtiniai kamuoliniai debesys.
lietus,

TAF: ESTA 161716Z 1618/1622 15012KT CAVOK TEMPO 1618/1622 SHRA SCT040CB

Orai ataskaitas ir orų prognozės (METAR, TAF).

turimą stotys yra geltonos ir raudonos taškus žemėlapyje.

Perkelti pele per norėdami pamatyti stoties vardą.

Tada spustelėkite, norėdami matyti oro stebėjimo ir prognozės.

Norėdami pakeisti žemėlapį: spustelėkite ant žalios mygtukų su juodo kryžiaus žemyn,; žalią mygtuką su brūkšneliu, jei norite nutolinti; arba žalių rodyklių gretimoms žemėlapius.


METAR-TAF: